aviador You're here:

EPPO Decoded Metar

POZNAN in POLAND
Report Time2018-01-16 12:30:00
UTC Time2018-01-16 12:58:49
Flight Rules vfr VFR
Wind170° at 09 kt
W.Decomp.*RWY 10: 3.7 kt HW 8.2 kt RCW
W.Rank170° ranks 25
Current wind is above 170° avg. (5.2)
Visibility9999 m
Phenomena:N/A
Clouds:Scattered 027 Hf
Expected CloudBase > 1,600 ft AGL from Temp-Dew spread
CeilingNone
Temp02°C (ISA -12)
Dew Point-2°C (75% RH)
AAT-3.5°C
QNH0992 hPa
Density Alt-410 ft
Elevation302 ft
Report Wrong Elevation
Raw Report
EPPO 161230Z 17009KT 9999 SCT027 02/M02 Q0992 R10/190094=

Extra information for EPPO:More info

Metar Taf Metar & Taf Last 4 Metars F.Rules Stats Wind Profile Meteogram Temp Stats Airport Information Weather charts Add Link Nearby VenuesMetar ALERT Operation Metar Decoded Social comments